sensor_id;sensor_type;location;lat;lon;timestamp;temperature;humidity
25640;DHT22;13497;48.322;16.204;2023-12-20T00:01:01;3.00;99.90
25640;DHT22;13497;48.322;16.204;2023-12-20T00:03:27;2.80;99.90
25640;DHT22;13497;48.322;16.204;2023-12-20T00:05:52;2.60;99.90
25640;DHT22;13497;48.322;16.204;2023-12-20T00:08:18;2.60;99.90
25640;DHT22;13497;48.322;16.204;2023-12-20T00:10:44;2.60;99.90
25640;DHT22;13497;48.322;16.204;2023-12-20T00:13:10;2.60;99.90
25640;DHT22;13497;48.322;16.204;2023-12-20T00:15:36;2.60;99.90
25640;DHT22;13497;48.322;16.204;2023-12-20T00:18:02;2.50;99.90
25640;DHT22;13497;48.322;16.204;2023-12-20T00:20:28;2.60;99.90
25640;DHT22;13497;48.322;16.204;2023-12-20T00:22:56;2.70;99.90
25640;DHT22;13497;48.322;16.204;2023-12-20T00:25:23;2.80;99.90
25640;DHT22;13497;48.322;16.204;2023-12-20T00:27:48;2.80;99.90
25640;DHT22;13497;48.322;16.204;2023-12-20T00:30:14;3.00;99.90
25640;DHT22;13497;48.322;16.204;2023-12-20T00:32:40;3.10;99.90
25640;DHT22;13497;48.322;16.204;2023-12-20T00:35:12;3.20;99.90
25640;DHT22;13497;48.322;16.204;2023-12-20T00:37:37;3.40;99.90
25640;DHT22;13497;48.322;16.204;2023-12-20T00:40:03;3.50;99.90
25640;DHT22;13497;48.322;16.204;2023-12-20T00:42:30;3.40;99.90
25640;DHT22;13497;48.322;16.204;2023-12-20T00:44:55;3.30;99.90
25640;DHT22;13497;48.322;16.204;2023-12-20T00:47:21;3.20;99.90
25640;DHT22;13497;48.322;16.204;2023-12-20T00:49:47;3.10;99.90
25640;DHT22;13497;48.322;16.204;2023-12-20T00:52:13;2.90;99.90
25640;DHT22;13497;48.322;16.204;2023-12-20T00:54:39;2.80;99.90
25640;DHT22;13497;48.322;16.204;2023-12-20T00:57:05;2.80;99.90
25640;DHT22;13497;48.322;16.204;2023-12-20T00:59:30;2.90;99.90
25640;DHT22;13497;48.322;16.204;2023-12-20T01:01:56;2.90;99.90
25640;DHT22;13497;48.322;16.204;2023-12-20T01:04:22;2.90;99.90
25640;DHT22;13497;48.322;16.204;2023-12-20T01:06:47;3.10;99.90
25640;DHT22;13497;48.322;16.204;2023-12-20T01:09:13;3.00;99.90
25640;DHT22;13497;48.322;16.204;2023-12-20T01:11:39;2.70;99.90
25640;DHT22;13497;48.322;16.204;2023-12-20T01:14:04;2.50;99.90
25640;DHT22;13497;48.322;16.204;2023-12-20T01:16:30;2.40;99.90
25640;DHT22;13497;48.322;16.204;2023-12-20T01:18:56;2.30;99.90
25640;DHT22;13497;48.322;16.204;2023-12-20T01:21:21;2.40;99.90
25640;DHT22;13497;48.322;16.204;2023-12-20T01:23:47;2.60;99.90
25640;DHT22;13497;48.322;16.204;2023-12-20T01:26:14;2.70;99.90
25640;DHT22;13497;48.322;16.204;2023-12-20T01:28:39;2.80;99.90
25640;DHT22;13497;48.322;16.204;2023-12-20T01:31:05;3.00;99.90
25640;DHT22;13497;48.322;16.204;2023-12-20T01:33:31;3.20;99.90
25640;DHT22;13497;48.322;16.204;2023-12-20T01:35:57;3.60;99.90
25640;DHT22;13497;48.322;16.204;2023-12-20T01:38:22;3.80;99.90
25640;DHT22;13497;48.322;16.204;2023-12-20T01:40:48;3.80;99.90
25640;DHT22;13497;48.322;16.204;2023-12-20T01:43:14;3.70;99.90
25640;DHT22;13497;48.322;16.204;2023-12-20T01:45:40;3.70;99.90
25640;DHT22;13497;48.322;16.204;2023-12-20T01:48:08;3.80;99.90
25640;DHT22;13497;48.322;16.204;2023-12-20T01:50:36;3.90;99.90
25640;DHT22;13497;48.322;16.204;2023-12-20T01:53:03;4.00;99.90
25640;DHT22;13497;48.322;16.204;2023-12-20T01:55:33;3.90;99.90
25640;DHT22;13497;48.322;16.204;2023-12-20T01:58:00;3.90;99.90
25640;DHT22;13497;48.322;16.204;2023-12-20T02:00:28;3.90;99.90
25640;DHT22;13497;48.322;16.204;2023-12-20T02:02:54;3.80;99.90
25640;DHT22;13497;48.322;16.204;2023-12-20T02:05:21;3.80;99.90
25640;DHT22;13497;48.322;16.204;2023-12-20T02:07:48;3.90;99.90
25640;DHT22;13497;48.322;16.204;2023-12-20T02:10:13;4.30;99.90
25640;DHT22;13497;48.322;16.204;2023-12-20T02:12:40;4.90;99.90
25640;DHT22;13497;48.322;16.204;2023-12-20T02:15:06;5.40;99.90
25640;DHT22;13497;48.322;16.204;2023-12-20T02:17:32;5.70;99.90
25640;DHT22;13497;48.322;16.204;2023-12-20T02:19:58;6.10;99.90
25640;DHT22;13497;48.322;16.204;2023-12-20T02:22:23;6.30;99.90
25640;DHT22;13497;48.322;16.204;2023-12-20T02:24:49;6.50;99.90
25640;DHT22;13497;48.322;16.204;2023-12-20T02:27:15;6.70;99.90
25640;DHT22;13497;48.322;16.204;2023-12-20T02:29:43;6.80;99.90
25640;DHT22;13497;48.322;16.204;2023-12-20T02:32:09;6.80;99.90
25640;DHT22;13497;48.322;16.204;2023-12-20T02:34:34;6.90;99.90
25640;DHT22;13497;48.322;16.204;2023-12-20T02:37:00;7.00;99.90
25640;DHT22;13497;48.322;16.204;2023-12-20T02:39:26;7.10;99.90
25640;DHT22;13497;48.322;16.204;2023-12-20T02:41:52;7.10;99.90
25640;DHT22;13497;48.322;16.204;2023-12-20T02:44:18;7.10;99.90
25640;DHT22;13497;48.322;16.204;2023-12-20T02:46:44;7.10;99.90
25640;DHT22;13497;48.322;16.204;2023-12-20T02:49:10;7.10;99.90
25640;DHT22;13497;48.322;16.204;2023-12-20T02:51:35;7.10;99.90
25640;DHT22;13497;48.322;16.204;2023-12-20T02:54:04;7.20;99.90
25640;DHT22;13497;48.322;16.204;2023-12-20T02:56:31;7.20;99.90
25640;DHT22;13497;48.322;16.204;2023-12-20T02:58:57;7.10;99.90
25640;DHT22;13497;48.322;16.204;2023-12-20T03:01:22;7.10;99.90
25640;DHT22;13497;48.322;16.204;2023-12-20T03:03:48;7.10;99.90
25640;DHT22;13497;48.322;16.204;2023-12-20T03:06:18;7.00;99.90
25640;DHT22;13497;48.322;16.204;2023-12-20T03:08:44;7.00;99.90
25640;DHT22;13497;48.322;16.204;2023-12-20T03:11:10;7.00;99.90
25640;DHT22;13497;48.322;16.204;2023-12-20T03:13:36;6.90;99.90
25640;DHT22;13497;48.322;16.204;2023-12-20T03:16:08;6.90;99.90
25640;DHT22;13497;48.322;16.204;2023-12-20T03:18:34;6.90;99.90
25640;DHT22;13497;48.322;16.204;2023-12-20T03:21:00;6.90;99.90
25640;DHT22;13497;48.322;16.204;2023-12-20T03:23:25;6.80;99.90
25640;DHT22;13497;48.322;16.204;2023-12-20T03:25:52;6.80;99.90
25640;DHT22;13497;48.322;16.204;2023-12-20T03:28:18;6.80;99.90
25640;DHT22;13497;48.322;16.204;2023-12-20T03:30:44;6.70;99.90
25640;DHT22;13497;48.322;16.204;2023-12-20T03:33:10;6.70;99.90
25640;DHT22;13497;48.322;16.204;2023-12-20T03:35:36;6.70;99.90
25640;DHT22;13497;48.322;16.204;2023-12-20T03:38:02;6.60;99.90
25640;DHT22;13497;48.322;16.204;2023-12-20T03:40:28;6.50;99.90
25640;DHT22;13497;48.322;16.204;2023-12-20T03:42:53;6.40;99.90
25640;DHT22;13497;48.322;16.204;2023-12-20T03:45:19;6.40;99.90
25640;DHT22;13497;48.322;16.204;2023-12-20T03:47:45;6.30;99.90
25640;DHT22;13497;48.322;16.204;2023-12-20T03:50:10;6.20;99.90
25640;DHT22;13497;48.322;16.204;2023-12-20T03:52:36;6.20;99.90
25640;DHT22;13497;48.322;16.204;2023-12-20T03:55:02;6.00;99.90
25640;DHT22;13497;48.322;16.204;2023-12-20T03:57:28;6.00;99.90
25640;DHT22;13497;48.322;16.204;2023-12-20T03:59:54;5.90;99.90
25640;DHT22;13497;48.322;16.204;2023-12-20T04:02:19;5.90;99.90
25640;DHT22;13497;48.322;16.204;2023-12-20T04:04:45;5.90;99.90
25640;DHT22;13497;48.322;16.204;2023-12-20T04:07:11;5.90;99.90
25640;DHT22;13497;48.322;16.204;2023-12-20T04:09:36;5.70;99.90
25640;DHT22;13497;48.322;16.204;2023-12-20T04:12:02;5.60;99.90
25640;DHT22;13497;48.322;16.204;2023-12-20T04:14:28;5.50;99.90
25640;DHT22;13497;48.322;16.204;2023-12-20T04:16:53;5.30;99.90
25640;DHT22;13497;48.322;16.204;2023-12-20T04:19:19;5.30;99.90
25640;DHT22;13497;48.322;16.204;2023-12-20T04:21:45;5.40;99.90
25640;DHT22;13497;48.322;16.204;2023-12-20T04:24:11;5.40;99.90
25640;DHT22;13497;48.322;16.204;2023-12-20T04:26:36;5.60;99.90
25640;DHT22;13497;48.322;16.204;2023-12-20T04:29:02;5.70;99.90
25640;DHT22;13497;48.322;16.204;2023-12-20T04:31:28;5.70;99.90
25640;DHT22;13497;48.322;16.204;2023-12-20T04:33:53;5.70;99.90
25640;DHT22;13497;48.322;16.204;2023-12-20T04:36:19;5.80;99.90
25640;DHT22;13497;48.322;16.204;2023-12-20T04:38:45;5.90;99.90
25640;DHT22;13497;48.322;16.204;2023-12-20T04:41:10;5.80;99.90
25640;DHT22;13497;48.322;16.204;2023-12-20T04:43:36;5.80;99.90
25640;DHT22;13497;48.322;16.204;2023-12-20T04:46:03;6.00;99.90
25640;DHT22;13497;48.322;16.204;2023-12-20T04:48:28;6.00;99.90
25640;DHT22;13497;48.322;16.204;2023-12-20T04:50:54;6.20;99.90
25640;DHT22;13497;48.322;16.204;2023-12-20T04:53:19;6.30;99.90
25640;DHT22;13497;48.322;16.204;2023-12-20T04:55:45;6.40;99.90
25640;DHT22;13497;48.322;16.204;2023-12-20T04:58:11;6.40;99.90
25640;DHT22;13497;48.322;16.204;2023-12-20T05:00:36;6.40;99.90
25640;DHT22;13497;48.322;16.204;2023-12-20T05:03:02;6.50;99.90
25640;DHT22;13497;48.322;16.204;2023-12-20T05:05:28;6.50;99.90
25640;DHT22;13497;48.322;16.204;2023-12-20T05:07:54;6.50;99.90
25640;DHT22;13497;48.322;16.204;2023-12-20T05:10:19;6.50;99.90
25640;DHT22;13497;48.322;16.204;2023-12-20T05:12:45;6.50;99.90
25640;DHT22;13497;48.322;16.204;2023-12-20T05:15:11;6.50;99.90
25640;DHT22;13497;48.322;16.204;2023-12-20T05:17:36;6.50;99.90
25640;DHT22;13497;48.322;16.204;2023-12-20T05:20:02;6.60;99.90
25640;DHT22;13497;48.322;16.204;2023-12-20T05:22:28;6.50;99.90
25640;DHT22;13497;48.322;16.204;2023-12-20T05:24:54;6.60;99.90
25640;DHT22;13497;48.322;16.204;2023-12-20T05:27:19;6.60;99.90
25640;DHT22;13497;48.322;16.204;2023-12-20T05:29:45;6.50;99.90
25640;DHT22;13497;48.322;16.204;2023-12-20T05:32:10;6.50;99.90
25640;DHT22;13497;48.322;16.204;2023-12-20T05:34:36;6.50;99.90
25640;DHT22;13497;48.322;16.204;2023-12-20T05:37:02;6.50;99.90
25640;DHT22;13497;48.322;16.204;2023-12-20T05:39:28;6.60;99.90
25640;DHT22;13497;48.322;16.204;2023-12-20T05:41:53;6.60;99.90
25640;DHT22;13497;48.322;16.204;2023-12-20T05:44:19;6.60;99.90
25640;DHT22;13497;48.322;16.204;2023-12-20T05:46:45;6.60;99.90
25640;DHT22;13497;48.322;16.204;2023-12-20T05:49:10;6.60;99.90
25640;DHT22;13497;48.322;16.204;2023-12-20T05:51:36;6.50;99.90
25640;DHT22;13497;48.322;16.204;2023-12-20T05:54:02;6.50;99.90
25640;DHT22;13497;48.322;16.204;2023-12-20T05:56:27;6.50;99.90
25640;DHT22;13497;48.322;16.204;2023-12-20T05:58:53;6.50;99.90
25640;DHT22;13497;48.322;16.204;2023-12-20T06:01:18;6.40;99.90
25640;DHT22;13497;48.322;16.204;2023-12-20T06:03:44;6.50;99.90
25640;DHT22;13497;48.322;16.204;2023-12-20T06:06:11;6.50;99.90
25640;DHT22;13497;48.322;16.204;2023-12-20T06:08:38;6.50;99.90
25640;DHT22;13497;48.322;16.204;2023-12-20T06:11:04;6.40;99.90
25640;DHT22;13497;48.322;16.204;2023-12-20T06:13:31;6.40;99.90
25640;DHT22;13497;48.322;16.204;2023-12-20T06:15:56;6.40;99.90
25640;DHT22;13497;48.322;16.204;2023-12-20T06:18:22;6.30;99.90
25640;DHT22;13497;48.322;16.204;2023-12-20T06:20:48;6.30;99.90
25640;DHT22;13497;48.322;16.204;2023-12-20T06:23:14;6.30;99.90
25640;DHT22;13497;48.322;16.204;2023-12-20T06:25:40;6.40;99.90
25640;DHT22;13497;48.322;16.204;2023-12-20T06:28:05;6.40;99.90
25640;DHT22;13497;48.322;16.204;2023-12-20T06:30:31;6.40;99.90
25640;DHT22;13497;48.322;16.204;2023-12-20T06:32:58;6.40;99.90
25640;DHT22;13497;48.322;16.204;2023-12-20T06:35:24;6.40;99.90
25640;DHT22;13497;48.322;16.204;2023-12-20T06:37:50;6.40;99.90
25640;DHT22;13497;48.322;16.204;2023-12-20T06:40:15;6.50;99.90
25640;DHT22;13497;48.322;16.204;2023-12-20T06:42:41;6.60;99.90
25640;DHT22;13497;48.322;16.204;2023-12-20T06:45:07;6.70;99.90
25640;DHT22;13497;48.322;16.204;2023-12-20T06:47:33;6.90;99.90
25640;DHT22;13497;48.322;16.204;2023-12-20T06:49:59;7.00;99.90
25640;DHT22;13497;48.322;16.204;2023-12-20T06:52:25;7.10;99.90
25640;DHT22;13497;48.322;16.204;2023-12-20T06:54:50;7.20;99.90
25640;DHT22;13497;48.322;16.204;2023-12-20T06:57:16;7.30;99.90
25640;DHT22;13497;48.322;16.204;2023-12-20T06:59:42;7.40;99.90
25640;DHT22;13497;48.322;16.204;2023-12-20T07:02:08;7.40;99.90
25640;DHT22;13497;48.322;16.204;2023-12-20T07:04:38;7.40;99.90
25640;DHT22;13497;48.322;16.204;2023-12-20T07:07:04;7.30;99.90
25640;DHT22;13497;48.322;16.204;2023-12-20T07:09:30;7.20;99.90
25640;DHT22;13497;48.322;16.204;2023-12-20T07:11:55;7.00;99.90
25640;DHT22;13497;48.322;16.204;2023-12-20T07:14:21;6.80;99.90
25640;DHT22;13497;48.322;16.204;2023-12-20T07:16:47;6.70;99.90
25640;DHT22;13497;48.322;16.204;2023-12-20T07:19:13;6.60;99.90
25640;DHT22;13497;48.322;16.204;2023-12-20T07:21:38;6.50;99.90
25640;DHT22;13497;48.322;16.204;2023-12-20T07:24:04;6.50;99.90
25640;DHT22;13497;48.322;16.204;2023-12-20T07:26:30;6.40;99.90
25640;DHT22;13497;48.322;16.204;2023-12-20T07:28:55;6.40;99.90
25640;DHT22;13497;48.322;16.204;2023-12-20T07:31:21;6.30;99.90
25640;DHT22;13497;48.322;16.204;2023-12-20T07:33:47;6.30;99.90
25640;DHT22;13497;48.322;16.204;2023-12-20T07:36:13;6.30;99.90
25640;DHT22;13497;48.322;16.204;2023-12-20T07:38:38;6.30;99.90
25640;DHT22;13497;48.322;16.204;2023-12-20T07:41:04;6.30;99.90
25640;DHT22;13497;48.322;16.204;2023-12-20T07:43:30;6.30;99.90
25640;DHT22;13497;48.322;16.204;2023-12-20T07:45:56;6.30;99.90
25640;DHT22;13497;48.322;16.204;2023-12-20T07:48:21;6.30;99.90
25640;DHT22;13497;48.322;16.204;2023-12-20T07:50:47;6.40;99.90
25640;DHT22;13497;48.322;16.204;2023-12-20T07:53:13;6.40;99.90
25640;DHT22;13497;48.322;16.204;2023-12-20T07:55:39;6.50;99.90
25640;DHT22;13497;48.322;16.204;2023-12-20T07:58:05;6.50;99.90
25640;DHT22;13497;48.322;16.204;2023-12-20T08:00:31;6.50;99.90
25640;DHT22;13497;48.322;16.204;2023-12-20T08:02:56;6.60;99.90
25640;DHT22;13497;48.322;16.204;2023-12-20T08:05:22;6.60;99.90
25640;DHT22;13497;48.322;16.204;2023-12-20T08:07:48;6.70;99.90
25640;DHT22;13497;48.322;16.204;2023-12-20T08:10:13;6.60;99.90
25640;DHT22;13497;48.322;16.204;2023-12-20T08:12:39;6.60;99.90
25640;DHT22;13497;48.322;16.204;2023-12-20T08:15:05;6.70;99.90
25640;DHT22;13497;48.322;16.204;2023-12-20T08:17:31;6.70;99.90
25640;DHT22;13497;48.322;16.204;2023-12-20T08:19:57;6.70;99.90
25640;DHT22;13497;48.322;16.204;2023-12-20T08:22:23;6.80;99.90
25640;DHT22;13497;48.322;16.204;2023-12-20T08:24:49;6.80;99.90
25640;DHT22;13497;48.322;16.204;2023-12-20T08:27:14;6.80;99.90
25640;DHT22;13497;48.322;16.204;2023-12-20T08:29:40;6.90;99.90
25640;DHT22;13497;48.322;16.204;2023-12-20T08:32:05;6.90;99.90
25640;DHT22;13497;48.322;16.204;2023-12-20T08:34:31;6.80;99.90
25640;DHT22;13497;48.322;16.204;2023-12-20T08:36:57;6.90;99.90
25640;DHT22;13497;48.322;16.204;2023-12-20T08:39:23;6.90;99.90
25640;DHT22;13497;48.322;16.204;2023-12-20T08:41:48;6.90;99.90
25640;DHT22;13497;48.322;16.204;2023-12-20T08:44:14;7.00;99.90
25640;DHT22;13497;48.322;16.204;2023-12-20T08:46:40;7.00;99.90
25640;DHT22;13497;48.322;16.204;2023-12-20T08:49:05;7.00;99.90
25640;DHT22;13497;48.322;16.204;2023-12-20T08:51:31;7.00;99.90
25640;DHT22;13497;48.322;16.204;2023-12-20T08:53:58;7.00;99.90
25640;DHT22;13497;48.322;16.204;2023-12-20T08:56:23;7.00;99.90
25640;DHT22;13497;48.322;16.204;2023-12-20T08:58:49;6.90;99.90
25640;DHT22;13497;48.322;16.204;2023-12-20T09:01:15;6.90;99.90
25640;DHT22;13497;48.322;16.204;2023-12-20T09:03:40;6.90;99.90
25640;DHT22;13497;48.322;16.204;2023-12-20T09:06:09;6.90;99.90
25640;DHT22;13497;48.322;16.204;2023-12-20T09:08:35;6.90;99.90
25640;DHT22;13497;48.322;16.204;2023-12-20T09:11:00;6.90;99.90
25640;DHT22;13497;48.322;16.204;2023-12-20T09:13:26;6.80;99.90
25640;DHT22;13497;48.322;16.204;2023-12-20T09:15:57;6.80;99.90
25640;DHT22;13497;48.322;16.204;2023-12-20T09:18:24;6.70;99.90
25640;DHT22;13497;48.322;16.204;2023-12-20T09:20:49;6.60;99.90
25640;DHT22;13497;48.322;16.204;2023-12-20T09:23:15;6.60;99.90
25640;DHT22;13497;48.322;16.204;2023-12-20T09:25:41;6.60;99.90
25640;DHT22;13497;48.322;16.204;2023-12-20T09:28:06;6.50;99.90
25640;DHT22;13497;48.322;16.204;2023-12-20T09:30:32;6.50;99.90
25640;DHT22;13497;48.322;16.204;2023-12-20T09:32:58;6.50;99.90
25640;DHT22;13497;48.322;16.204;2023-12-20T09:35:24;6.50;99.90
25640;DHT22;13497;48.322;16.204;2023-12-20T09:37:50;6.50;99.90
25640;DHT22;13497;48.322;16.204;2023-12-20T09:40:18;6.50;99.90
25640;DHT22;13497;48.322;16.204;2023-12-20T09:45:30;6.40;99.90
25640;DHT22;13497;48.322;16.204;2023-12-20T09:47:58;6.40;99.90
25640;DHT22;13497;48.322;16.204;2023-12-20T09:50:24;6.30;99.90
25640;DHT22;13497;48.322;16.204;2023-12-20T09:52:51;6.30;99.90
25640;DHT22;13497;48.322;16.204;2023-12-20T09:55:18;6.30;99.90
25640;DHT22;13497;48.322;16.204;2023-12-20T09:57:45;6.20;99.90
25640;DHT22;13497;48.322;16.204;2023-12-20T10:00:11;6.20;99.90
25640;DHT22;13497;48.322;16.204;2023-12-20T10:02:39;6.30;99.90
25640;DHT22;13497;48.322;16.204;2023-12-20T10:05:08;6.30;99.90
25640;DHT22;13497;48.322;16.204;2023-12-20T10:07:39;6.30;99.90
25640;DHT22;13497;48.322;16.204;2023-12-20T10:10:05;6.30;99.90
25640;DHT22;13497;48.322;16.204;2023-12-20T10:12:31;6.40;99.90
25640;DHT22;13497;48.322;16.204;2023-12-20T10:14:57;6.30;99.90
25640;DHT22;13497;48.322;16.204;2023-12-20T10:17:23;6.40;99.90
25640;DHT22;13497;48.322;16.204;2023-12-20T10:19:49;6.40;99.90
25640;DHT22;13497;48.322;16.204;2023-12-20T10:22:15;6.50;99.90
25640;DHT22;13497;48.322;16.204;2023-12-20T10:24:40;6.50;99.90
25640;DHT22;13497;48.322;16.204;2023-12-20T10:27:08;6.50;99.90
25640;DHT22;13497;48.322;16.204;2023-12-20T10:29:37;6.40;99.90
25640;DHT22;13497;48.322;16.204;2023-12-20T10:32:25;6.40;99.90
25640;DHT22;13497;48.322;16.204;2023-12-20T10:34:53;6.40;99.90
25640;DHT22;13497;48.322;16.204;2023-12-20T10:37:19;6.40;99.90
25640;DHT22;13497;48.322;16.204;2023-12-20T10:39:54;6.40;99.90
25640;DHT22;13497;48.322;16.204;2023-12-20T10:42:26;6.40;99.90
25640;DHT22;13497;48.322;16.204;2023-12-20T10:44:52;6.40;99.90
25640;DHT22;13497;48.322;16.204;2023-12-20T10:47:20;6.40;99.90
25640;DHT22;13497;48.322;16.204;2023-12-20T10:49:46;6.40;99.90
25640;DHT22;13497;48.322;16.204;2023-12-20T10:52:12;6.40;99.90
25640;DHT22;13497;48.322;16.204;2023-12-20T10:54:42;6.40;99.90
25640;DHT22;13497;48.322;16.204;2023-12-20T10:57:08;6.40;99.90
25640;DHT22;13497;48.322;16.204;2023-12-20T10:59:36;6.40;99.90
25640;DHT22;13497;48.322;16.204;2023-12-20T11:02:04;6.50;99.90
25640;DHT22;13497;48.322;16.204;2023-12-20T11:04:59;6.40;99.90
25640;DHT22;13497;48.322;16.204;2023-12-20T11:07:34;6.40;99.90
25640;DHT22;13497;48.322;16.204;2023-12-20T11:10:13;6.40;99.90
25640;DHT22;13497;48.322;16.204;2023-12-20T11:12:47;6.40;99.90
25640;DHT22;13497;48.322;16.204;2023-12-20T11:15:14;6.50;99.90
25640;DHT22;13497;48.322;16.204;2023-12-20T11:17:40;6.50;99.90
25640;DHT22;13497;48.322;16.204;2023-12-20T11:20:08;6.50;99.90
25640;DHT22;13497;48.322;16.204;2023-12-20T11:22:36;6.50;99.90
25640;DHT22;13497;48.322;16.204;2023-12-20T11:25:05;6.50;99.90
25640;DHT22;13497;48.322;16.204;2023-12-20T11:27:32;6.50;99.90
25640;DHT22;13497;48.322;16.204;2023-12-20T11:29:58;6.50;99.90
25640;DHT22;13497;48.322;16.204;2023-12-20T11:34:51;6.60;99.90
25640;DHT22;13497;48.322;16.204;2023-12-20T11:37:19;6.60;99.90
25640;DHT22;13497;48.322;16.204;2023-12-20T11:39:45;6.70;99.90
25640;DHT22;13497;48.322;16.204;2023-12-20T11:42:10;6.70;99.90
25640;DHT22;13497;48.322;16.204;2023-12-20T11:44:37;6.70;99.90
25640;DHT22;13497;48.322;16.204;2023-12-20T11:47:03;6.80;99.90
25640;DHT22;13497;48.322;16.204;2023-12-20T11:49:29;6.80;99.90
25640;DHT22;13497;48.322;16.204;2023-12-20T11:51:56;6.80;99.90
25640;DHT22;13497;48.322;16.204;2023-12-20T11:54:22;6.80;99.90
25640;DHT22;13497;48.322;16.204;2023-12-20T11:56:48;6.90;99.90
25640;DHT22;13497;48.322;16.204;2023-12-20T11:59:14;6.90;99.90
25640;DHT22;13497;48.322;16.204;2023-12-20T12:01:47;6.90;99.90
25640;DHT22;13497;48.322;16.204;2023-12-20T12:04:12;6.90;99.90
25640;DHT22;13497;48.322;16.204;2023-12-20T12:06:39;6.90;99.90
25640;DHT22;13497;48.322;16.204;2023-12-20T12:09:05;6.90;99.90
25640;DHT22;13497;48.322;16.204;2023-12-20T12:11:30;6.90;99.90
25640;DHT22;13497;48.322;16.204;2023-12-20T12:13:56;6.90;99.90
25640;DHT22;13497;48.322;16.204;2023-12-20T12:16:22;6.90;99.90
25640;DHT22;13497;48.322;16.204;2023-12-20T12:18:58;6.90;99.90
25640;DHT22;13497;48.322;16.204;2023-12-20T12:21:24;6.90;99.90
25640;DHT22;13497;48.322;16.204;2023-12-20T12:23:50;6.90;99.90
25640;DHT22;13497;48.322;16.204;2023-12-20T12:26:16;7.00;99.90
25640;DHT22;13497;48.322;16.204;2023-12-20T12:28:42;7.00;99.90
25640;DHT22;13497;48.322;16.204;2023-12-20T12:31:12;7.00;99.90
25640;DHT22;13497;48.322;16.204;2023-12-20T12:33:38;7.00;99.90
25640;DHT22;13497;48.322;16.204;2023-12-20T12:36:05;7.10;99.90
25640;DHT22;13497;48.322;16.204;2023-12-20T12:38:32;7.10;99.90
25640;DHT22;13497;48.322;16.204;2023-12-20T12:40:58;7.10;99.90
25640;DHT22;13497;48.322;16.204;2023-12-20T12:43:25;7.00;99.90
25640;DHT22;13497;48.322;16.204;2023-12-20T12:45:51;7.00;99.90
25640;DHT22;13497;48.322;16.204;2023-12-20T12:48:17;7.10;99.90
25640;DHT22;13497;48.322;16.204;2023-12-20T12:50:43;7.10;99.90
25640;DHT22;13497;48.322;16.204;2023-12-20T12:53:09;7.10;99.90
25640;DHT22;13497;48.322;16.204;2023-12-20T12:55:35;7.10;99.90
25640;DHT22;13497;48.322;16.204;2023-12-20T12:58:01;7.10;99.90
25640;DHT22;13497;48.322;16.204;2023-12-20T13:00:27;7.10;99.90
25640;DHT22;13497;48.322;16.204;2023-12-20T13:02:53;7.10;99.90
25640;DHT22;13497;48.322;16.204;2023-12-20T13:05:21;7.20;99.90
25640;DHT22;13497;48.322;16.204;2023-12-20T13:07:47;7.20;99.90
25640;DHT22;13497;48.322;16.204;2023-12-20T13:10:13;7.10;99.90
25640;DHT22;13497;48.322;16.204;2023-12-20T13:12:42;7.10;99.90
25640;DHT22;13497;48.322;16.204;2023-12-20T13:15:07;7.10;99.90
25640;DHT22;13497;48.322;16.204;2023-12-20T13:17:34;7.10;99.90
25640;DHT22;13497;48.322;16.204;2023-12-20T13:20:00;7.10;99.90
25640;DHT22;13497;48.322;16.204;2023-12-20T13:22:25;7.00;99.90
25640;DHT22;13497;48.322;16.204;2023-12-20T13:24:51;7.00;99.90
25640;DHT22;13497;48.322;16.204;2023-12-20T13:27:16;6.90;99.90
25640;DHT22;13497;48.322;16.204;2023-12-20T13:29:42;6.90;99.90
25640;DHT22;13497;48.322;16.204;2023-12-20T13:32:08;6.90;99.90
25640;DHT22;13497;48.322;16.204;2023-12-20T13:34:33;6.90;99.90
25640;DHT22;13497;48.322;16.204;2023-12-20T13:36:59;6.90;99.90
25640;DHT22;13497;48.322;16.204;2023-12-20T13:39:24;6.90;99.90
25640;DHT22;13497;48.322;16.204;2023-12-20T13:41:51;6.90;99.90
25640;DHT22;13497;48.322;16.204;2023-12-20T13:44:16;6.90;99.90
25640;DHT22;13497;48.322;16.204;2023-12-20T13:46:42;6.90;99.90
25640;DHT22;13497;48.322;16.204;2023-12-20T13:49:08;6.80;99.90
25640;DHT22;13497;48.322;16.204;2023-12-20T13:51:34;6.80;99.90
25640;DHT22;13497;48.322;16.204;2023-12-20T13:53:59;6.70;99.90
25640;DHT22;13497;48.322;16.204;2023-12-20T13:56:25;6.80;99.90
25640;DHT22;13497;48.322;16.204;2023-12-20T13:58:51;6.80;99.90
25640;DHT22;13497;48.322;16.204;2023-12-20T14:01:17;6.70;99.90
25640;DHT22;13497;48.322;16.204;2023-12-20T14:03:42;6.70;99.90
25640;DHT22;13497;48.322;16.204;2023-12-20T14:06:08;6.70;99.90
25640;DHT22;13497;48.322;16.204;2023-12-20T14:08:34;6.70;99.90
25640;DHT22;13497;48.322;16.204;2023-12-20T14:11:01;6.80;99.90
25640;DHT22;13497;48.322;16.204;2023-12-20T14:13:26;6.80;99.90
25640;DHT22;13497;48.322;16.204;2023-12-20T14:15:52;6.70;99.90
25640;DHT22;13497;48.322;16.204;2023-12-20T14:18:19;6.70;99.90
25640;DHT22;13497;48.322;16.204;2023-12-20T14:20:45;6.70;99.90
25640;DHT22;13497;48.322;16.204;2023-12-20T14:23:12;6.70;99.90
25640;DHT22;13497;48.322;16.204;2023-12-20T14:25:41;6.70;99.90
25640;DHT22;13497;48.322;16.204;2023-12-20T14:28:07;6.70;99.90
25640;DHT22;13497;48.322;16.204;2023-12-20T14:30:33;6.70;99.90
25640;DHT22;13497;48.322;16.204;2023-12-20T14:33:00;6.50;99.90
25640;DHT22;13497;48.322;16.204;2023-12-20T14:35:25;6.50;99.90
25640;DHT22;13497;48.322;16.204;2023-12-20T14:37:51;6.60;99.90
25640;DHT22;13497;48.322;16.204;2023-12-20T14:40:17;6.60;99.90
25640;DHT22;13497;48.322;16.204;2023-12-20T14:42:44;6.60;99.90
25640;DHT22;13497;48.322;16.204;2023-12-20T14:45:10;6.60;99.90
25640;DHT22;13497;48.322;16.204;2023-12-20T14:47:36;6.60;99.90
25640;DHT22;13497;48.322;16.204;2023-12-20T14:50:06;6.60;99.90
25640;DHT22;13497;48.322;16.204;2023-12-20T14:52:32;6.60;99.90
25640;DHT22;13497;48.322;16.204;2023-12-20T14:55:00;6.60;99.90
25640;DHT22;13497;48.322;16.204;2023-12-20T14:57:26;6.50;99.90
25640;DHT22;13497;48.322;16.204;2023-12-20T14:59:52;6.50;99.90
25640;DHT22;13497;48.322;16.204;2023-12-20T15:02:18;6.50;99.90
25640;DHT22;13497;48.322;16.204;2023-12-20T15:04:44;6.40;99.90
25640;DHT22;13497;48.322;16.204;2023-12-20T15:07:10;6.40;99.90
25640;DHT22;13497;48.322;16.204;2023-12-20T15:09:35;6.30;99.90
25640;DHT22;13497;48.322;16.204;2023-12-20T15:12:01;6.30;99.90
25640;DHT22;13497;48.322;16.204;2023-12-20T15:14:27;6.30;99.90
25640;DHT22;13497;48.322;16.204;2023-12-20T15:16:54;6.20;99.90
25640;DHT22;13497;48.322;16.204;2023-12-20T15:19:21;6.20;99.90
25640;DHT22;13497;48.322;16.204;2023-12-20T15:21:47;6.20;99.90
25640;DHT22;13497;48.322;16.204;2023-12-20T15:24:13;6.20;99.90
25640;DHT22;13497;48.322;16.204;2023-12-20T15:26:43;6.10;99.90
25640;DHT22;13497;48.322;16.204;2023-12-20T15:29:09;6.10;99.90